Ayr, ND

4:08 PM CDT on July 31, 2014 (GMT -0500)
Valley City (KBAC) Elev 1401 ft | 46.94 °N, 98.02 °W | Change Station

Current weather conditions updated 13 minutes ago

Scattered Clouds
Scattered Clouds
82 °F
Feels Like 82 °F
N
8
Wind Variable Wind from NNW

Tomorrow is forecast to be nearly the same temperature as today.

Today
High -- | Low -- °F
--% Chance of Precip.
Yesterday
High -- | Low -- °F
Precip. -- in
6:08 AM 9:04 PM
Waxing Crescent, 21% visible
Pressure 30.05 in
Visibility 10.0 miles
Clouds Scattered Clouds 5500 ft
Heat Index 82 °F
Dew Point 55 °F
Humidity 39%
Rainfall 0.00 in
Snow Depth Not available.
UV 6 out of 12
Pollen 8.10 out of 12
Air Quality Not available.
Flu Activity Not available.
METAR KBAC 312055Z AUTO 34007KT 10SM SCT055 28/13 A3005 RMK AO2

More Conditions Fewer Conditions

Pressure 30.05 in
Visibility 10.0 miles
Clouds Scattered Clouds 5500 ft
Heat Index 82 °F
Dew Point 55 °F
Humidity 39%
Rainfall 0.00 in
Snow Depth Not available.
UV 6 out of 12
Pollen 8.10 out of 12
Air Quality Not available.
Flu Activity Not available.
METAR KBAC 312055Z AUTO 34007KT 10SM SCT055 28/13 A3005 RMK AO2

More Conditions Fewer Conditions

10-Day Weather Forecast

Almanac

Astronomy

Jul. 31, 2014 Rise Set
Actual Time 6:08 AM CDT 9:04 PM CDT
Civil Twilight 5:32 AM CDT 9:39 PM CDT
Nautical Twilight 4:47 AM CDT 10:25 PM CDT
Astronomical Twilight 3:51 AM CDT 11:19 PM CDT
Moon 10:58 AM CDT 10:55 PM CDT
Length of Visible Light 16h 06m
Length of Day
14h 55m
Tomorrow will be 2m 35s shorter.
Waxing Crescent, 21% of the Moon is Illuminated
Today
Waxing Crescent
Aug 3
First Quarter
Aug 10
Full
Aug 17
Last Quarter
Aug 25
New

Today's Extremes

State Highs State Lows

Community

WunderPhotos

Upload Photos

1,739,451 photos uploaded!

Nearby

Snow Depth

Station Depth Elevation
No new snow has been reported.

Earthquake Activity

City Distance Mag. Time & Date
No recent earthquake activity has been reported nearby.
Minimum magnitude displayed is 2.5.

Coastal Water Temperatures

Place Temperature
No Stations Reporting

Nearby Weather Stations

Station Location Temp. Heat Index Dew Point Humidity Wind Precip. Elev Updated Type
Home of the Absaraka Crows, Absaraka, ND 88.3 °F 89 °F 63 °F 43% NW  at  2.2 mph 0.00 in / hr 1066 ft 1:27 PM CDT Rapid Fire
Valley City State University, Valley City, ND 84.4 °F 84 °F - 39% NNE  at  4.0 mph 0.00 in / hr 1220 ft 4:01 PM CDT Normal

Show More Stations Show Fewer Stations